Time;durP1;ratioP1;P1;durP2;ratioP2;P2;SDS_P1;SDS_P2;PMS_P1;PMS_P2;Temp;Humidity;BMP_temperature;BMP_pressure;BME280_temperature;BME280_humidity;BME280_pressure;Samples;Min_cycle;Max_cycle;Signal;HPM_P1;HPM_P2
2020/12/28 08:11:16;;;;;;;1.77;1.50;;;;;;;;;;12995122;22;1617663;-84
2020/12/28 08:16:17;;;;;;;3.27;1.50;;;;;;;;;;12976252;22;20313;-85
2020/12/28 08:21:18;;;;;;;1.55;1.20;;;;;;;;;;12977458;22;20012;-85
2020/12/28 08:26:21;;;;;;;2.13;1.20;;;;;;;;;;12976126;22;20029;-84
2020/12/28 08:31:29;;;;;;;4.55;3.88;;;;;;;;;;12973089;22;20004;-85
2020/12/28 08:36:31;;;;;;;2.33;1.58;;;;;;;;;;12971441;22;20069;-85
2020/12/28 08:41:32;;;;;;;3.10;1.70;;;;;;;;;;12970478;22;20436;-86
2020/12/28 08:46:33;;;;;;;2.05;1.38;;;;;;;;;;12974022;22;20003;-86
2020/12/28 08:51:34;;;;;;;2.83;1.52;;;;;;;;;;13009666;22;20079;-85
2020/12/28 08:56:38;;;;;;;1.90;1.20;;;;;;;;;;12977041;22;20007;-86
2020/12/28 09:01:39;;;;;;;3.65;1.63;;;;;;;;;;12976031;22;20090;-86
2020/12/28 09:12:00;;;;;;;4.53;1.55;;;;;;;;;;13024320;22;20071;-86
2020/12/28 09:17:01;;;;;;;2.22;1.25;;;;;;;;;;13000423;22;20003;-83
2020/12/28 09:22:03;;;;;;;1.80;1.20;;;;;;;;;;13009049;22;20003;-86
2020/12/28 09:27:04;;;;;;;2.08;1.20;;;;;;;;;;12977722;22;20075;-85
2020/12/28 09:32:05;;;;;;;2.63;1.17;;;;;;;;;;12981286;22;20280;-86
2020/12/28 09:37:08;;;;;;;1.67;1.30;;;;;;;;;;12977067;22;20378;-85
2020/12/28 09:42:12;;;;;;;2.40;1.58;;;;;;;;;;12977631;22;20359;-86
2020/12/28 09:47:22;;;;;;;2.50;1.20;;;;;;;;;;13016397;22;20006;-85
2020/12/28 09:52:23;;;;;;;1.50;1.17;;;;;;;;;;12976230;22;20008;-86
2020/12/28 09:57:24;;;;;;;1.77;1.25;;;;;;;;;;12972699;22;20035;-86
2020/12/28 10:02:40;;;;;;;1.95;0.90;;;;;;;;;;12971437;22;19999;-87
2020/12/28 10:07:43;;;;;;;2.35;1.00;;;;;;;;;;12999435;22;20003;-87
2020/12/28 10:18:22;;;;;;;3.38;1.00;;;;;;;;;;12998500;22;20011;-87
2020/12/28 10:23:23;;;;;;;1.88;1.00;;;;;;;;;;12970077;22;20448;-87
2020/12/28 10:29:08;;;;;;;2.17;1.05;;;;;;;;;;12968847;22;20082;-89
2020/12/28 10:34:12;;;;;;;3.65;1.08;;;;;;;;;;12968381;22;20008;-88
2020/12/28 10:39:15;;;;;;;2.08;1.10;;;;;;;;;;13022749;22;20071;-87
2020/12/28 10:44:19;;;;;;;2.80;0.85;;;;;;;;;;13001716;22;20015;-86
2020/12/28 10:49:20;;;;;;;2.33;0.70;;;;;;;;;;12974635;22;20058;-86
2020/12/28 10:54:21;;;;;;;1.50;0.70;;;;;;;;;;12975794;22;20138;-86
2020/12/28 10:59:22;;;;;;;2.40;0.95;;;;;;;;;;12989100;22;20007;-87
2020/12/28 11:04:23;;;;;;;2.63;1.10;;;;;;;;;;12968827;22;20011;-87
2020/12/28 11:09:24;;;;;;;1.90;1.10;;;;;;;;;;12973153;22;20019;-87
2020/12/28 11:14:25;;;;;;;3.08;1.30;;;;;;;;;;12990468;22;20000;-87
2020/12/28 11:19:26;;;;;;;2.15;1.02;;;;;;;;;;12991067;22;20078;-87
2020/12/28 11:24:27;;;;;;;2.65;1.10;;;;;;;;;;12973110;22;20081;-86
2020/12/28 11:29:28;;;;;;;;;;;;;;;;;;12977593;22;19995;-87
2020/12/28 11:34:29;;;;;;;2.10;1.10;;;;;;;;;;12976813;22;19903;-86
2020/12/28 11:39:30;;;;;;;;;;;;;;;;;;12990610;22;20000;-86
2020/12/28 11:44:31;;;;;;;2.92;1.10;;;;;;;;;;13006012;22;19899;-85
2020/12/28 11:49:32;;;;;;;;;;;;;;;;;;12994399;22;20035;-87
2020/12/28 11:54:33;;;;;;;3.30;0.90;;;;;;;;;;12977715;22;19899;-87
2020/12/28 11:59:34;;;;;;;1.92;1.10;;;;;;;;;;12976737;22;20478;-86
2020/12/28 12:04:53;;;;;;;2.65;1.45;;;;;;;;;;12973487;22;20004;-86
2020/12/28 12:09:58;;;;;;;1.73;1.08;;;;;;;;;;12971528;22;20090;-88
2020/12/28 12:14:59;;;;;;;2.10;1.10;;;;;;;;;;12971275;22;20011;-87
2020/12/28 12:20:00;;;;;;;2.40;0.90;;;;;;;;;;12972552;22;20012;-87
2020/12/28 12:25:01;;;;;;;1.60;1.10;;;;;;;;;;12972615;22;20004;-87
2020/12/28 12:30:25;;;;;;;1.95;1.02;;;;;;;;;;12998853;22;20510;-86
2020/12/28 12:35:26;;;;;;;1.67;0.88;;;;;;;;;;12975057;22;20007;-88
2020/12/28 12:40:27;;;;;;;1.55;0.85;;;;;;;;;;12975633;22;20011;-86
2020/12/28 12:45:28;;;;;;;1.38;0.70;;;;;;;;;;13001917;22;20035;-87
2020/12/28 12:50:29;;;;;;;0.88;0.70;;;;;;;;;;12974094;22;20063;-85
2020/12/28 12:55:30;;;;;;;1.95;1.30;;;;;;;;;;12972931;22;20010;-86
2020/12/28 13:00:31;;;;;;;2.28;1.00;;;;;;;;;;12979682;22;20004;-87
2020/12/28 13:05:32;;;;;;;1.00;0.70;;;;;;;;;;12989602;22;20008;-87
2020/12/28 13:10:33;;;;;;;1.75;1.00;;;;;;;;;;12981537;22;20011;-88
2020/12/28 13:15:34;;;;;;;2.50;1.30;;;;;;;;;;13002184;22;20332;-87
2020/12/28 13:20:38;;;;;;;1.77;1.05;;;;;;;;;;12979635;22;20463;-88
2020/12/28 13:25:40;;;;;;;1.80;1.00;;;;;;;;;;12976764;22;20004;-86
2020/12/28 13:30:44;;;;;;;2.40;1.23;;;;;;;;;;12975543;22;20097;-87
2020/12/28 13:35:59;;;;;;;;;;;;;;;;;;;;;
2020/12/28 13:41:04;;;;;;;3.38;1.40;;;;;;;;;;13038122;22;20443;-87
2020/12/28 13:46:09;;;;;;;2.20;1.08;;;;;;;;;;12972350;22;19996;-86
2020/12/28 13:51:15;;;;;;;2.30;1.40;;;;;;;;;;12977168;22;19999;-88
2020/12/28 13:56:27;;;;;;;2.67;1.48;;;;;;;;;;12979327;22;20033;-88
2020/12/28 14:01:34;;;;;;;1.48;1.02;;;;;;;;;;12977325;22;20000;-87
2020/12/28 14:06:38;;;;;;;3.20;1.23;;;;;;;;;;12978809;22;20014;-88
2020/12/28 14:11:42;;;;;;;2.78;1.60;;;;;;;;;;13004469;22;20452;-88
2020/12/28 14:16:45;;;;;;;1.42;0.85;;;;;;;;;;13012253;22;20026;-88
2020/12/28 14:21:51;;;;;;;1.42;0.98;;;;;;;;;;12976891;22;19999;-88
2020/12/28 14:27:23;;;;;;;1.92;1.20;;;;;;;;;;12974400;22;20011;-88
2020/12/28 14:32:34;;;;;;;3.58;1.10;;;;;;;;;;12987036;22;19992;-87
2020/12/28 14:37:35;;;;;;;3.13;1.58;;;;;;;;;;12969384;22;20428;-89
2020/12/28 14:42:37;;;;;;;3.08;1.52;;;;;;;;;;12987574;22;20184;-88
2020/12/28 14:47:44;;;;;;;2.60;1.52;;;;;;;;;;12988402;22;20014;-88
2020/12/28 14:52:50;;;;;;;2.50;1.88;;;;;;;;;;12985655;22;19999;-89
2020/12/28 14:58:09;;;;;;;4.38;2.58;;;;;;;;;;12992422;22;20374;-88
2020/12/28 15:03:11;;;;;;;1.52;1.17;;;;;;;;;;12986757;22;20007;-88
2020/12/28 15:08:13;;;;;;;2.45;1.20;;;;;;;;;;12997227;22;20012;-88
2020/12/28 15:13:14;;;;;;;1.88;1.13;;;;;;;;;;12997882;22;20011;-88
2020/12/28 15:18:18;;;;;;;2.17;1.45;;;;;;;;;;12975692;22;20018;-88
2020/12/28 15:23:19;;;;;;;2.38;1.80;;;;;;;;;;12985092;22;20003;-88
2020/12/28 15:28:28;;;;;;;2.65;1.80;;;;;;;;;;12987614;22;20019;-89
2020/12/28 15:33:32;;;;;;;2.45;1.90;;;;;;;;;;13002404;22;20003;-88
2020/12/28 15:38:33;;;;;;;3.22;2.50;;;;;;;;;;12996400;22;20038;-87
2020/12/28 15:43:34;;;;;;;3.95;2.55;;;;;;;;;;12988272;22;20059;-90
2020/12/28 15:49:08;;;;;;;3.17;2.05;;;;;;;;;;12997027;22;20018;-89
2020/12/28 15:54:27;;;;;;;2.75;1.95;;;;;;;;;;12995409;22;20014;-90
